Time,TemperatureF,DewpointF,PressureIn,WindDirection,WindDirectionDegrees,WindSpeedMPH,WindSpeedGustMPH,Humidity,HourlyPrecipIn,Conditions,Clouds,dailyrainin,SoftwareType,DateUTC
2013-09-16 00:01:00,77.4,75.4,30.05,SE,135,0.0,0.0,94,0.00,,,0.00,WUHU21636XXSP,2013-09-16 04:01:00,
2013-09-16 00:02:00,77.4,75.4,30.05,SE,135,0.0,0.0,94,0.00,,,0.00,WUHU21636XXSP,2013-09-16 04:02:00,
2013-09-16 00:07:00,77.2,75.2,30.05,SE,135,0.0,0.0,94,0.00,,,0.00,WUHU21636XXSP,2013-09-16 04:07:00,
2013-09-16 00:12:00,77.2,75.2,30.05,SE,135,0.0,0.0,94,0.00,,,0.00,WUHU21636XXSP,2013-09-16 04:12:00,
2013-09-16 00:17:00,77.2,75.2,30.05,SE,135,0.0,0.0,94,0.00,,,0.00,WUHU21636XXSP,2013-09-16 04:17:00,
2013-09-16 00:22:00,77.0,75.0,30.05,SE,135,0.0,0.0,94,0.00,,,0.00,WUHU21636XXSP,2013-09-16 04:22:00,
2013-09-16 00:27:00,77.0,75.0,30.05,SE,135,0.0,0.0,94,0.00,,,0.00,WUHU21636XXSP,2013-09-16 04:27:00,
2013-09-16 00:32:00,77.2,75.2,30.05,SE,135,0.0,0.0,94,0.00,,,0.00,WUHU21636XXSP,2013-09-16 04:32:00,
2013-09-16 00:37:00,77.2,75.2,30.05,SE,135,0.0,0.0,94,0.00,,,0.00,WUHU21636XXSP,2013-09-16 04:37:00,
2013-09-16 00:42:00,77.0,75.0,30.05,SE,135,0.0,0.0,94,0.00,,,0.00,WUHU21636XXSP,2013-09-16 04:42:00,
2013-09-16 00:47:00,77.0,75.0,30.06,SE,135,0.0,0.0,94,0.00,,,0.00,WUHU21636XXSP,2013-09-16 04:47:00,
2013-09-16 00:52:00,76.8,74.8,30.05,SE,135,0.0,0.0,94,0.00,,,0.00,WUHU21636XXSP,2013-09-16 04:52:00,
2013-09-16 00:57:00,76.8,74.8,30.05,SE,135,0.0,0.0,94,0.00,,,0.00,WUHU21636XXSP,2013-09-16 04:57:00,
2013-09-16 01:02:00,76.8,74.8,30.05,SE,135,0.0,0.0,94,0.00,,,0.00,WUHU21636XXSP,2013-09-16 05:02:00,
2013-09-16 01:07:00,76.8,74.8,30.06,SE,135,0.0,0.0,94,0.00,,,0.00,WUHU21636XXSP,2013-09-16 05:07:00,
2013-09-16 01:12:00,76.8,74.8,30.06,SE,135,0.0,0.0,94,0.00,,,0.00,WUHU21636XXSP,2013-09-16 05:12:00,
2013-09-16 01:17:00,76.6,74.7,30.06,SE,135,0.0,0.0,94,0.00,,,0.00,WUHU21636XXSP,2013-09-16 05:17:00,
2013-09-16 01:22:00,76.6,74.7,30.05,SE,135,0.0,0.0,94,0.00,,,0.00,WUHU21636XXSP,2013-09-16 05:22:00,
2013-09-16 01:27:00,76.8,74.8,30.05,SE,135,0.0,0.0,94,0.00,,,0.00,WUHU21636XXSP,2013-09-16 05:27:00,
2013-09-16 01:32:00,77.0,75.0,30.05,SE,135,0.0,0.0,94,0.00,,,0.00,WUHU21636XXSP,2013-09-16 05:32:00,
2013-09-16 01:37:00,77.2,75.2,30.05,SSE,157,0.0,0.0,94,0.00,,,0.00,WUHU21636XXSP,2013-09-16 05:37:00,
2013-09-16 01:42:00,77.2,75.2,30.05,SSE,157,0.0,0.0,94,0.00,,,0.00,WUHU21636XXSP,2013-09-16 05:42:00,
2013-09-16 01:47:00,77.4,75.4,30.05,SSE,157,0.0,0.0,94,0.00,,,0.00,WUHU21636XXSP,2013-09-16 05:47:00,
2013-09-16 01:52:00,77.2,75.2,30.05,SSE,157,0.0,0.0,94,0.00,,,0.00,WUHU21636XXSP,2013-09-16 05:52:00,
2013-09-16 01:57:00,77.2,75.2,30.05,SW,225,0.0,3.6,94,0.00,,,0.00,WUHU21636XXSP,2013-09-16 05:57:00,
2013-09-16 02:02:00,76.8,74.8,30.05,SSW,202,0.0,3.6,94,0.00,,,0.00,WUHU21636XXSP,2013-09-16 06:02:00,
2013-09-16 02:07:00,76.8,74.8,30.05,SSW,202,0.0,0.0,94,0.00,,,0.00,WUHU21636XXSP,2013-09-16 06:07:00,
2013-09-16 02:12:00,76.6,74.7,30.05,SSW,202,0.0,0.0,94,0.00,,,0.00,WUHU21636XXSP,2013-09-16 06:12:00,
2013-09-16 02:17:00,76.3,74.3,30.05,SSW,202,0.0,0.0,94,0.00,,,0.00,WUHU21636XXSP,2013-09-16 06:17:00,
2013-09-16 02:22:00,76.1,74.1,30.04,SSW,202,0.0,0.0,94,0.00,,,0.00,WUHU21636XXSP,2013-09-16 06:22:00,
2013-09-16 02:27:00,75.9,73.9,30.04,SSW,202,0.0,0.0,94,0.00,,,0.00,WUHU21636XXSP,2013-09-16 06:27:00,
2013-09-16 02:32:00,75.9,73.9,30.03,SSW,202,0.0,0.0,94,0.00,,,0.00,WUHU21636XXSP,2013-09-16 06:32:00,
2013-09-16 02:37:00,75.7,73.8,30.03,SSW,202,0.0,0.0,94,0.00,,,0.00,WUHU21636XXSP,2013-09-16 06:37:00,
2013-09-16 02:42:00,75.7,73.8,30.03,SSW,202,0.0,0.0,94,0.00,,,0.00,WUHU21636XXSP,2013-09-16 06:42:00,
2013-09-16 02:47:00,75.7,73.8,30.03,SSW,202,0.0,0.0,95,0.00,,,0.00,WUHU21636XXSP,2013-09-16 06:47:00,
2013-09-16 02:52:00,75.6,73.9,30.03,SSW,202,0.0,0.0,95,0.00,,,0.00,WUHU21636XXSP,2013-09-16 06:52:00,
2013-09-16 02:57:00,75.4,73.8,30.02,SSW,202,0.0,0.0,95,0.00,,,0.00,WUHU21636XXSP,2013-09-16 06:57:00,
2013-09-16 03:02:00,75.4,73.8,30.02,SSW,202,0.0,0.0,95,0.00,,,0.00,WUHU21636XXSP,2013-09-16 07:02:00,
2013-09-16 03:07:00,75.2,73.6,30.02,SSW,202,0.0,0.0,95,0.00,,,0.00,WUHU21636XXSP,2013-09-16 07:07:00,
2013-09-16 03:12:00,75.0,73.4,30.02,SSW,202,0.0,0.0,95,0.00,,,0.00,WUHU21636XXSP,2013-09-16 07:12:00,
2013-09-16 03:17:00,74.8,73.2,30.02,SSW,202,0.0,0.0,95,0.00,,,0.00,WUHU21636XXSP,2013-09-16 07:17:00,
2013-09-16 03:22:00,74.8,73.2,30.02,SSW,202,0.0,0.0,95,0.00,,,0.00,WUHU21636XXSP,2013-09-16 07:22:00,
2013-09-16 03:27:00,74.8,73.2,30.02,SSW,202,0.0,0.0,95,0.00,,,0.00,WUHU21636XXSP,2013-09-16 07:27:00,
2013-09-16 03:32:00,74.8,73.2,30.02,SSW,202,0.0,0.0,95,0.00,,,0.00,WUHU21636XXSP,2013-09-16 07:32:00,
2013-09-16 03:37:00,75.0,73.4,30.02,SSW,202,0.0,0.0,95,0.00,,,0.00,WUHU21636XXSP,2013-09-16 07:37:00,
2013-09-16 03:42:00,74.8,73.2,30.02,SSW,202,0.0,0.0,95,0.00,,,0.00,WUHU21636XXSP,2013-09-16 07:42:00,
2013-09-16 03:47:00,74.8,73.2,30.01,SSW,202,0.0,0.0,95,0.00,,,0.00,WUHU21636XXSP,2013-09-16 07:47:00,
2013-09-16 03:52:00,74.8,73.2,30.01,SSW,202,0.0,0.0,95,0.00,,,0.00,WUHU21636XXSP,2013-09-16 07:52:00,
2013-09-16 03:57:00,74.8,73.2,30.01,SSW,202,0.0,0.0,95,0.00,,,0.00,WUHU21636XXSP,2013-09-16 07:57:00,
2013-09-16 04:02:00,74.8,73.2,30.02,SSW,202,0.0,0.0,95,0.00,,,0.00,WUHU21636XXSP,2013-09-16 08:02:00,
2013-09-16 04:07:00,74.8,73.2,30.01,SSW,202,0.0,0.0,95,0.00,,,0.00,WUHU21636XXSP,2013-09-16 08:07:00,
2013-09-16 04:12:00,74.7,73.0,30.01,SSW,202,0.0,0.0,95,0.00,,,0.00,WUHU21636XXSP,2013-09-16 08:12:00,
2013-09-16 04:17:00,74.5,72.9,30.01,SSW,202,0.0,0.0,95,0.00,,,0.00,WUHU21636XXSP,2013-09-16 08:17:00,
2013-09-16 04:22:00,74.3,72.7,30.01,SSW,202,0.0,0.0,95,0.00,,,0.00,WUHU21636XXSP,2013-09-16 08:22:00,
2013-09-16 04:27:00,74.1,72.5,30.01,SSW,202,0.0,0.0,95,0.00,,,0.00,WUHU21636XXSP,2013-09-16 08:27:00,
2013-09-16 04:32:00,74.1,72.5,30.01,SSW,202,0.0,0.0,95,0.00,,,0.00,WUHU21636XXSP,2013-09-16 08:32:00,
2013-09-16 04:37:00,74.1,72.5,30.00,SSW,202,0.0,0.0,95,0.00,,,0.00,WUHU21636XXSP,2013-09-16 08:37:00,
2013-09-16 04:42:00,74.1,72.5,30.00,SSW,202,0.0,0.0,95,0.00,,,0.00,WUHU21636XXSP,2013-09-16 08:42:00,
2013-09-16 04:47:00,73.9,72.3,30.01,SSW,202,0.0,0.0,95,0.00,,,0.00,WUHU21636XXSP,2013-09-16 08:47:00,
2013-09-16 04:52:00,73.9,72.3,30.01,SSW,202,0.0,0.0,95,0.00,,,0.00,WUHU21636XXSP,2013-09-16 08:52:00,
2013-09-16 04:57:00,73.9,72.3,30.02,SSW,202,0.0,0.0,95,0.00,,,0.00,WUHU21636XXSP,2013-09-16 08:57:00,
2013-09-16 05:02:00,73.8,72.1,30.02,SSW,202,0.0,0.0,95,0.00,,,0.00,WUHU21636XXSP,2013-09-16 09:02:00,
2013-09-16 05:07:00,73.6,72.0,30.02,SSW,202,0.0,0.0,95,0.00,,,0.00,WUHU21636XXSP,2013-09-16 09:07:00,
2013-09-16 05:12:00,73.8,72.1,30.02,SSW,202,0.0,0.0,95,0.00,,,0.00,WUHU21636XXSP,2013-09-16 09:12:00,
2013-09-16 05:17:00,73.9,72.3,30.02,SSW,202,0.0,0.0,95,0.00,,,0.00,WUHU21636XXSP,2013-09-16 09:17:00,
2013-09-16 05:22:00,73.8,72.1,30.02,SSW,202,0.0,0.0,95,0.00,,,0.00,WUHU21636XXSP,2013-09-16 09:22:00,
2013-09-16 05:27:00,73.8,72.1,30.02,SSW,202,0.0,0.0,95,0.00,,,0.00,WUHU21636XXSP,2013-09-16 09:27:00,
2013-09-16 05:32:00,73.8,72.1,30.02,SSW,202,0.0,0.0,95,0.00,,,0.00,WUHU21636XXSP,2013-09-16 09:32:00,
2013-09-16 05:37:00,73.8,72.1,30.02,SSW,202,0.0,0.0,95,0.00,,,0.00,WUHU21636XXSP,2013-09-16 09:37:00,
2013-09-16 05:42:00,73.8,72.1,30.02,SSW,202,0.0,0.0,95,0.00,,,0.00,WUHU21636XXSP,2013-09-16 09:42:00,
2013-09-16 05:47:00,73.6,72.0,30.03,SSW,202,0.0,0.0,95,0.00,,,0.00,WUHU21636XXSP,2013-09-16 09:47:00,
2013-09-16 05:52:00,73.6,72.0,30.03,SSW,202,0.0,0.0,95,0.00,,,0.00,WUHU21636XXSP,2013-09-16 09:52:00,
2013-09-16 05:57:00,73.4,71.8,30.03,SSW,202,0.0,0.0,95,0.00,,,0.00,WUHU21636XXSP,2013-09-16 09:57:00,
2013-09-16 06:02:00,73.2,71.6,30.03,SSW,202,0.0,0.0,95,0.00,,,0.00,WUHU21636XXSP,2013-09-16 10:02:00,
2013-09-16 06:07:00,73.2,71.6,30.03,SSW,202,0.0,0.0,95,0.00,,,0.00,WUHU21636XXSP,2013-09-16 10:07:00,
2013-09-16 06:12:00,73.2,71.6,30.04,SSW,202,0.0,0.0,95,0.00,,,0.00,WUHU21636XXSP,2013-09-16 10:12:00,
2013-09-16 06:17:00,73.0,71.4,30.04,SSW,202,0.0,0.0,95,0.00,,,0.00,WUHU21636XXSP,2013-09-16 10:17:00,
2013-09-16 06:22:00,73.2,71.6,30.04,SSW,202,0.0,0.0,95,0.00,,,0.00,WUHU21636XXSP,2013-09-16 10:22:00,
2013-09-16 06:27:00,73.2,71.6,30.04,SSW,202,0.0,0.0,95,0.00,,,0.00,WUHU21636XXSP,2013-09-16 10:27:00,
2013-09-16 06:32:00,73.0,71.4,30.03,SSW,202,0.0,0.0,95,0.00,,,0.00,WUHU21636XXSP,2013-09-16 10:32:00,
2013-09-16 06:37:00,73.0,71.4,30.03,SSW,202,0.0,0.0,95,0.00,,,0.00,WUHU21636XXSP,2013-09-16 10:37:00,
2013-09-16 06:42:00,73.2,71.6,30.03,SSW,202,0.0,0.0,95,0.00,,,0.00,WUHU21636XXSP,2013-09-16 10:42:00,
2013-09-16 06:47:00,73.2,71.6,30.04,SSW,202,0.0,0.0,95,0.00,,,0.00,WUHU21636XXSP,2013-09-16 10:47:00,
2013-09-16 06:52:00,73.2,71.6,30.04,SSW,202,0.0,0.0,95,0.00,,,0.00,WUHU21636XXSP,2013-09-16 10:52:00,
2013-09-16 06:57:00,73.2,71.6,30.04,SSW,202,0.0,0.0,95,0.00,,,0.00,WUHU21636XXSP,2013-09-16 10:57:00,
2013-09-16 07:02:00,73.0,71.4,30.04,SSW,202,0.0,0.0,95,0.00,,,0.00,WUHU21636XXSP,2013-09-16 11:02:00,
2013-09-16 07:07:00,73.0,71.4,30.04,SSW,202,0.0,0.0,95,0.00,,,0.00,WUHU21636XXSP,2013-09-16 11:07:00,
2013-09-16 07:12:00,73.0,71.4,30.04,SSW,202,0.0,0.0,95,0.00,,,0.00,WUHU21636XXSP,2013-09-16 11:12:00,
2013-09-16 07:17:00,73.0,71.4,30.05,SSW,202,0.0,0.0,95,0.00,,,0.00,WUHU21636XXSP,2013-09-16 11:17:00,
2013-09-16 07:22:00,73.0,71.4,30.05,SSW,202,0.0,0.0,95,0.00,,,0.00,WUHU21636XXSP,2013-09-16 11:22:00,
2013-09-16 07:27:00,73.0,71.4,30.05,SSW,202,0.0,0.0,95,0.00,,,0.00,WUHU21636XXSP,2013-09-16 11:27:00,
2013-09-16 07:32:00,73.0,71.4,30.05,SSW,202,0.0,0.0,95,0.00,,,0.00,WUHU21636XXSP,2013-09-16 11:32:00,
2013-09-16 07:37:00,73.0,71.4,30.05,SSW,202,0.0,0.0,95,0.00,,,0.00,WUHU21636XXSP,2013-09-16 11:37:00,
2013-09-16 07:42:00,73.0,71.4,30.05,SSW,202,0.0,0.0,95,0.00,,,0.00,WUHU21636XXSP,2013-09-16 11:42:00,
2013-09-16 07:47:00,73.2,71.6,30.05,SSW,202,0.0,0.0,95,0.00,,,0.00,WUHU21636XXSP,2013-09-16 11:47:00,
2013-09-16 07:52:00,73.2,71.6,30.05,SSW,202,0.0,0.0,95,0.00,,,0.00,WUHU21636XXSP,2013-09-16 11:52:00,
2013-09-16 07:57:00,73.6,72.0,30.05,SSW,202,0.0,0.0,95,0.00,,,0.00,WUHU21636XXSP,2013-09-16 11:57:00,
2013-09-16 08:02:00,73.8,72.1,30.06,SSW,202,0.0,0.0,95,0.00,,,0.00,WUHU21636XXSP,2013-09-16 12:02:00,
2013-09-16 08:07:00,73.9,72.3,30.06,SSW,202,0.0,0.0,95,0.00,,,0.00,WUHU21636XXSP,2013-09-16 12:07:00,
2013-09-16 08:12:00,74.1,72.5,30.06,SSW,202,0.0,0.0,95,0.00,,,0.00,WUHU21636XXSP,2013-09-16 12:12:00,
2013-09-16 08:17:00,74.5,72.9,30.06,SSW,202,0.0,0.0,95,0.00,,,0.00,WUHU21636XXSP,2013-09-16 12:17:00,
2013-09-16 08:22:00,74.8,73.2,30.06,SSW,202,0.0,0.0,95,0.00,,,0.00,WUHU21636XXSP,2013-09-16 12:22:00,
2013-09-16 08:27:00,75.4,73.8,30.06,SSW,202,0.0,0.0,95,0.00,,,0.00,WUHU21636XXSP,2013-09-16 12:27:00,
2013-09-16 08:32:00,75.7,74.5,30.06,SSW,202,0.0,0.0,96,0.00,,,0.00,WUHU21636XXSP,2013-09-16 12:32:00,
2013-09-16 08:37:00,76.1,74.8,30.06,ESE,112,0.0,0.0,96,0.00,,,0.00,WUHU21636XXSP,2013-09-16 12:37:00,
2013-09-16 08:42:00,76.6,75.0,30.06,ESE,112,0.0,0.0,95,0.00,,,0.00,WUHU21636XXSP,2013-09-16 12:42:00,
2013-09-16 08:47:00,76.8,75.2,30.07,ESE,112,0.0,0.0,95,0.00,,,0.00,WUHU21636XXSP,2013-09-16 12:47:00,
2013-09-16 08:52:00,77.2,75.6,30.07,ESE,112,0.0,0.0,95,0.00,,,0.00,WUHU21636XXSP,2013-09-16 12:52:00,
2013-09-16 08:57:00,77.7,76.1,30.06,ENE,67,0.0,2.2,95,0.00,,,0.00,WUHU21636XXSP,2013-09-16 12:57:00,
2013-09-16 09:02:00,78.3,76.6,30.07,SSW,202,0.0,3.0,95,0.00,,,0.00,WUHU21636XXSP,2013-09-16 13:02:00,
2013-09-16 09:07:00,78.6,77.0,30.07,SSW,202,0.0,3.0,95,0.00,,,0.00,WUHU21636XXSP,2013-09-16 13:07:00,
2013-09-16 09:12:00,79.3,77.4,30.07,ENE,67,0.0,2.7,94,0.00,,,0.00,WUHU21636XXSP,2013-09-16 13:12:00,
2013-09-16 09:17:00,79.9,77.2,30.07,East,90,0.0,2.7,92,0.00,,,0.00,WUHU21636XXSP,2013-09-16 13:17:00,
2013-09-16 09:22:00,80.2,77.5,30.07,SW,225,0.0,1.8,92,0.00,,,0.00,WUHU21636XXSP,2013-09-16 13:22:00,
2013-09-16 09:27:00,80.8,77.5,30.07,ENE,67,0.0,1.6,90,0.00,,,0.00,WUHU21636XXSP,2013-09-16 13:27:00,
2013-09-16 09:32:00,81.1,77.5,30.07,SSE,157,0.0,2.7,89,0.00,,,0.00,WUHU21636XXSP,2013-09-16 13:32:00,
2013-09-16 09:37:00,81.7,77.7,30.07,ENE,67,0.9,2.7,88,0.00,,,0.00,WUHU21636XXSP,2013-09-16 13:37:00,
2013-09-16 09:42:00,82.0,77.7,30.07,ENE,67,0.0,4.2,86,0.00,,,0.00,WUHU21636XXSP,2013-09-16 13:42:00,
2013-09-16 09:47:00,82.9,78.3,30.07,NE,45,0.0,4.2,86,0.00,,,0.00,WUHU21636XXSP,2013-09-16 13:47:00,
2013-09-16 09:52:00,82.8,77.7,30.07,NNE,22,0.0,3.9,85,0.00,,,0.00,WUHU21636XXSP,2013-09-16 13:52:00,
2013-09-16 09:57:00,83.1,77.7,30.06,NE,45,0.0,0.9,84,0.00,,,0.00,WUHU21636XXSP,2013-09-16 13:57:00,
2013-09-16 10:01:00,83.4,77.8,30.07,ESE,112,0.0,0.9,83,0.00,,,0.00,WUHU21636XXSP,2013-09-16 14:01:00,
2013-09-16 10:06:00,83.5,77.5,30.07,ESE,112,0.0,1.2,82,0.00,,,0.00,WUHU21636XXSP,2013-09-16 14:06:00,
2013-09-16 10:11:00,83.5,77.5,30.06,NE,45,0.0,2.7,82,0.00,,,0.00,WUHU21636XXSP,2013-09-16 14:11:00,
2013-09-16 10:16:00,84.2,77.4,30.06,SSE,157,0.0,2.7,80,0.00,,,0.00,WUHU21636XXSP,2013-09-16 14:16:00,
2013-09-16 10:21:00,83.9,76.5,30.06,ENE,67,0.0,2.3,78,0.00,,,0.00,WUHU21636XXSP,2013-09-16 14:21:00,
2013-09-16 10:26:00,84.4,77.0,30.06,East,90,0.0,4.5,78,0.00,,,0.00,WUHU21636XXSP,2013-09-16 14:26:00,
2013-09-16 10:31:00,86.2,77.6,30.06,ENE,67,5.2,5.7,75,0.00,,,0.00,WUHU21636XXSP,2013-09-16 14:31:00,
2013-09-16 10:36:00,86.7,76.9,30.06,SE,135,0.0,7.3,72,0.00,,,0.00,WUHU21636XXSP,2013-09-16 14:36:00,
2013-09-16 10:41:00,87.4,75.8,30.06,ESE,112,1.9,7.3,68,0.00,,,0.00,WUHU21636XXSP,2013-09-16 14:41:00,
2013-09-16 10:46:00,86.3,75.2,30.05,NE,45,2.4,7.3,69,0.00,,,0.00,WUHU21636XXSP,2013-09-16 14:46:00,
2013-09-16 10:51:00,86.9,75.8,30.05,NE,45,3.8,6.8,69,0.00,,,0.00,WUHU21636XXSP,2013-09-16 14:51:00,
2013-09-16 10:56:00,86.9,74.9,30.05,NE,45,1.2,5.6,67,0.00,,,0.00,WUHU21636XXSP,2013-09-16 14:56:00,
2013-09-16 11:01:00,88.0,75.9,30.05,ENE,67,0.0,5.6,67,0.00,,,0.00,WUHU21636XXSP,2013-09-16 15:01:00,
2013-09-16 11:06:00,87.6,75.1,30.06,East,90,0.0,4.2,66,0.00,,,0.00,WUHU21636XXSP,2013-09-16 15:06:00,
2013-09-16 11:12:00,87.2,73.4,30.06,ENE,67,0.0,2.6,63,0.00,,,0.00,WUHU21636XXSP,2013-09-16 15:12:00,
2013-09-16 11:17:00,87.7,73.8,30.06,ENE,67,0.0,3.0,63,0.00,,,0.00,WUHU21636XXSP,2013-09-16 15:17:00,
2013-09-16 11:22:00,87.8,73.5,30.06,NE,45,0.0,4.2,62,0.00,,,0.00,WUHU21636XXSP,2013-09-16 15:22:00,
2013-09-16 11:27:00,87.9,74.9,30.06,NE,45,0.0,4.2,65,0.00,,,0.00,WUHU21636XXSP,2013-09-16 15:27:00,
2013-09-16 11:32:00,89.0,74.6,30.06,ENE,67,0.0,4.0,62,0.00,,,0.00,WUHU21636XXSP,2013-09-16 15:32:00,
2013-09-16 11:33:00,89.3,74.4,30.06,ENE,67,3.7,4.2,61,0.00,,,0.00,WUHU21636XXSP,2013-09-16 15:33:00,
2013-09-16 11:38:00,90.7,75.2,30.06,ENE,67,0.0,4.2,60,0.00,,,0.00,WUHU21636XXSP,2013-09-16 15:38:00,
2013-09-16 11:43:00,92.6,75.5,30.06,ENE,67,0.0,4.2,57,0.00,,,0.00,WUHU21636XXSP,2013-09-16 15:43:00,
2013-09-16 11:48:00,89.8,73.9,30.06,ENE,67,2.7,2.7,59,0.00,,,0.00,WUHU21636XXSP,2013-09-16 15:48:00,
2013-09-16 11:53:00,88.8,74.4,30.06,ENE,67,0.0,4.4,62,0.00,,,0.00,WUHU21636XXSP,2013-09-16 15:53:00,
2013-09-16 11:58:00,90.0,75.1,30.06,ENE,67,1.7,6.0,61,0.00,,,0.00,WUHU21636XXSP,2013-09-16 15:58:00,
2013-09-16 12:03:00,89.2,74.8,30.06,NE,45,0.0,6.0,62,0.00,,,0.00,WUHU21636XXSP,2013-09-16 16:03:00,
2013-09-16 12:08:00,88.8,73.9,30.05,ENE,67,0.0,2.8,61,0.00,,,0.00,WUHU21636XXSP,2013-09-16 16:08:00,
2013-09-16 12:13:00,89.6,75.1,30.05,East,90,0.0,2.7,62,0.00,,,0.00,WUHU21636XXSP,2013-09-16 16:13:00,
2013-09-16 12:18:00,90.4,74.4,30.05,SE,135,0.0,3.2,59,0.00,,,0.00,WUHU21636XXSP,2013-09-16 16:18:00,
2013-09-16 12:23:00,91.1,74.0,30.05,ENE,67,0.0,3.7,57,0.00,,,0.00,WUHU21636XXSP,2013-09-16 16:23:00,
2013-09-16 12:28:00,91.7,72.9,30.05,ESE,112,1.7,3.7,54,0.00,,,0.00,WUHU21636XXSP,2013-09-16 16:28:00,
2013-09-16 12:33:00,91.4,73.8,30.05,NE,45,1.4,3.3,56,0.00,,,0.00,WUHU21636XXSP,2013-09-16 16:33:00,
2013-09-16 12:38:00,89.8,73.9,30.05,NNE,22,4.5,7.0,59,0.00,,,0.00,WUHU21636XXSP,2013-09-16 16:38:00,
2013-09-16 12:43:00,90.3,73.3,30.05,ENE,67,0.0,7.0,57,0.00,,,0.00,WUHU21636XXSP,2013-09-16 16:43:00,
2013-09-16 12:48:00,88.9,72.0,30.04,North,0,1.4,8.6,57,0.00,,,0.00,WUHU21636XXSP,2013-09-16 16:48:00,
2013-09-16 12:53:00,89.2,72.8,30.04,NNE,22,0.0,8.6,58,0.00,,,0.00,WUHU21636XXSP,2013-09-16 16:53:00,
2013-09-16 12:58:00,90.1,72.0,30.03,East,90,0.0,4.3,55,0.00,,,0.00,WUHU21636XXSP,2013-09-16 16:58:00,
2013-09-16 13:03:00,89.3,72.8,30.04,ENE,67,1.7,6.4,58,0.00,,,0.00,WUHU21636XXSP,2013-09-16 17:03:00,
2013-09-16 13:08:00,88.4,72.6,30.04,NNW,337,3.1,6.4,59,0.00,,,0.00,WUHU21636XXSP,2013-09-16 17:08:00,
2013-09-16 13:13:00,88.5,72.6,30.03,ENE,67,5.6,6.4,59,0.00,,,0.00,WUHU21636XXSP,2013-09-16 17:13:00,
2013-09-16 13:18:00,89.6,73.2,30.02,ESE,112,1.0,6.4,58,0.00,,,0.00,WUHU21636XXSP,2013-09-16 17:18:00,
2013-09-16 13:23:00,89.7,73.3,30.03,SE,135,3.6,7.5,58,0.00,,,0.00,WUHU21636XXSP,2013-09-16 17:23:00,
2013-09-16 13:28:00,91.1,74.0,30.03,ENE,67,0.0,7.5,57,0.00,,,0.00,WUHU21636XXSP,2013-09-16 17:28:00,
2013-09-16 13:33:00,90.6,72.5,30.02,NNW,337,1.4,6.7,55,0.00,,,0.00,WUHU21636XXSP,2013-09-16 17:33:00,
2013-09-16 13:38:00,90.7,72.6,30.02,SE,135,0.0,6.7,55,0.00,,,0.00,WUHU21636XXSP,2013-09-16 17:38:00,
2013-09-16 13:43:00,89.0,73.1,30.02,ENE,67,4.7,4.7,59,0.00,,,0.00,WUHU21636XXSP,2013-09-16 17:43:00,
2013-09-16 13:48:00,89.3,73.4,30.02,NE,45,0.0,5.5,59,0.00,,,0.00,WUHU21636XXSP,2013-09-16 17:48:00,
2013-09-16 13:53:00,88.0,73.2,30.01,ESE,112,0.0,6.5,61,0.00,,,0.00,WUHU21636XXSP,2013-09-16 17:53:00,
2013-09-16 13:58:00,88.4,74.0,30.01,NE,45,0.0,6.5,62,0.00,,,0.00,WUHU21636XXSP,2013-09-16 17:58:00,
2013-09-16 14:03:00,88.3,73.9,30.01,NNE,22,0.0,4.5,62,0.00,,,0.00,WUHU21636XXSP,2013-09-16 18:03:00,
2013-09-16 14:08:00,88.7,73.3,30.01,NNE,22,0.0,4.5,60,0.00,,,0.00,WUHU21636XXSP,2013-09-16 18:08:00,
2013-09-16 14:13:00,88.9,73.0,30.01,SE,135,0.0,4.4,59,0.00,,,0.00,WUHU21636XXSP,2013-09-16 18:13:00,
2013-09-16 14:18:00,89.7,73.2,30.00,SW,225,4.0,5.1,58,0.00,,,0.00,WUHU21636XXSP,2013-09-16 18:18:00,
2013-09-16 14:23:00,89.3,73.9,30.00,East,90,2.4,9.3,60,0.00,,,0.00,WUHU21636XXSP,2013-09-16 18:23:00,
2013-09-16 14:28:00,89.3,73.9,30.00,ENE,67,0.0,9.3,60,0.00,,,0.00,WUHU21636XXSP,2013-09-16 18:28:00,
2013-09-16 14:33:00,89.3,73.9,30.00,NE,45,2.0,7.7,60,0.00,,,0.00,WUHU21636XXSP,2013-09-16 18:33:00,
2013-09-16 14:38:00,88.9,73.5,30.00,ESE,112,0.0,7.7,60,0.00,,,0.00,WUHU21636XXSP,2013-09-16 18:38:00,
2013-09-16 14:43:00,89.3,73.4,30.00,SE,135,0.0,4.4,59,0.00,,,0.00,WUHU21636XXSP,2013-09-16 18:43:00,
2013-09-16 14:48:00,89.5,73.6,30.00,ENE,67,0.0,7.3,59,0.00,,,0.00,WUHU21636XXSP,2013-09-16 18:48:00,
2013-09-16 14:53:00,89.5,73.1,29.99,NNE,22,4.4,10.9,58,0.00,,,0.00,WUHU21636XXSP,2013-09-16 18:53:00,
2013-09-16 14:58:00,89.6,73.2,29.99,South,180,2.7,10.9,58,0.00,,,0.00,WUHU21636XXSP,2013-09-16 18:58:00,
2013-09-16 15:03:00,89.6,73.7,29.99,ESE,112,6.8,10.9,59,0.00,,,0.00,WUHU21636XXSP,2013-09-16 19:03:00,
2013-09-16 15:08:00,89.6,74.2,29.99,East,90,4.7,8.3,60,0.00,,,0.00,WUHU21636XXSP,2013-09-16 19:08:00,
2013-09-16 15:13:00,89.8,74.4,29.99,ESE,112,4.5,9.0,60,0.00,,,0.00,WUHU21636XXSP,2013-09-16 19:13:00,
2013-09-16 15:18:00,89.9,74.9,29.98,ESE,112,2.8,9.5,61,0.00,,,0.00,WUHU21636XXSP,2013-09-16 19:18:00,
2013-09-16 15:23:00,90.1,75.6,29.98,NNE,22,6.0,9.5,62,0.00,,,0.00,WUHU21636XXSP,2013-09-16 19:23:00,
2013-09-16 15:28:00,90.0,75.5,29.98,South,180,5.0,9.3,62,0.00,,,0.00,WUHU21636XXSP,2013-09-16 19:28:00,
2013-09-16 15:33:00,89.6,75.2,29.98,NE,45,0.0,8.1,63,0.00,,,0.00,WUHU21636XXSP,2013-09-16 19:33:00,
2013-09-16 15:38:00,89.8,76.3,29.98,ESE,112,2.6,8.1,64,0.00,,,0.00,WUHU21636XXSP,2013-09-16 19:38:00,
2013-09-16 15:43:00,89.6,75.2,29.98,ESE,112,2.3,11.7,63,0.00,,,0.00,WUHU21636XXSP,2013-09-16 19:43:00,
2013-09-16 15:48:00,89.4,76.1,29.98,ENE,67,2.8,12.5,66,0.00,,,0.00,WUHU21636XXSP,2013-09-16 19:48:00,
2013-09-16 15:53:00,89.2,75.9,29.98,ESE,112,1.6,12.5,65,0.00,,,0.00,WUHU21636XXSP,2013-09-16 19:53:00,
2013-09-16 15:58:00,89.2,75.9,29.98,SSE,157,2.3,10.8,65,0.00,,,0.00,WUHU21636XXSP,2013-09-16 19:58:00,
2013-09-16 16:03:00,88.9,75.6,29.98,ENE,67,2.1,10.8,65,0.00,,,0.00,WUHU21636XXSP,2013-09-16 20:03:00,
2013-09-16 16:08:00,88.9,75.6,29.98,NNE,22,4.0,9.8,65,0.00,,,0.00,WUHU21636XXSP,2013-09-16 20:08:00,
2013-09-16 16:13:00,88.7,75.4,29.97,SE,135,1.8,10.3,65,0.00,,,0.00,WUHU21636XXSP,2013-09-16 20:13:00,
2013-09-16 16:18:00,88.5,75.2,29.97,SSE,157,0.0,10.3,65,0.00,,,0.00,WUHU21636XXSP,2013-09-16 20:18:00,
2013-09-16 16:23:00,88.3,75.4,29.97,ESE,112,0.0,9.0,66,0.00,,,0.00,WUHU21636XXSP,2013-09-16 20:23:00,
2013-09-16 16:28:00,88.3,75.4,29.98,ENE,67,3.7,12.6,66,0.00,,,0.00,WUHU21636XXSP,2013-09-16 20:28:00,
2013-09-16 16:33:00,88.0,75.0,29.97,SSE,157,0.0,12.6,66,0.00,,,0.00,WUHU21636XXSP,2013-09-16 20:33:00,
2013-09-16 16:38:00,87.8,75.4,29.97,ENE,67,3.4,10.5,67,0.00,,,0.00,WUHU21636XXSP,2013-09-16 20:38:00,
2013-09-16 16:43:00,87.8,75.0,29.97,ENE,67,6.3,9.4,66,0.00,,,0.00,WUHU21636XXSP,2013-09-16 20:43:00,
2013-09-16 16:48:00,87.4,74.7,29.97,NE,45,0.0,10.2,66,0.00,,,0.00,WUHU21636XXSP,2013-09-16 20:48:00,
2013-09-16 16:53:00,87.4,74.7,29.97,East,90,0.0,10.2,68,0.00,,,0.00,WUHU21636XXSP,2013-09-16 20:53:00,
2013-09-16 16:58:00,87.4,74.7,29.97,West,270,1.9,7.8,68,0.00,,,0.00,WUHU21636XXSP,2013-09-16 20:58:00,
2013-09-16 17:03:00,87.4,74.7,29.97,NE,45,0.0,9.4,68,0.00,,,0.00,WUHU21636XXSP,2013-09-16 21:03:00,
2013-09-16 17:08:00,87.3,75.4,29.97,South,180,2.2,9.4,68,0.00,,,0.00,WUHU21636XXSP,2013-09-16 21:08:00,
2013-09-16 17:13:00,87.1,75.2,29.97,NNE,22,0.0,10.9,68,0.00,,,0.00,WUHU21636XXSP,2013-09-16 21:13:00,
2013-09-16 17:18:00,86.9,75.0,29.97,ENE,67,0.0,10.9,69,0.00,,,0.00,WUHU21636XXSP,2013-09-16 21:18:00,
2013-09-16 17:23:00,86.9,75.0,29.98,ESE,112,0.0,6.5,69,0.00,,,0.00,WUHU21636XXSP,2013-09-16 21:23:00,
2013-09-16 17:28:00,86.7,75.4,29.98,East,90,1.2,10.1,69,0.00,,,0.00,WUHU21636XXSP,2013-09-16 21:28:00,
2013-09-16 17:33:00,86.5,75.2,29.98,ESE,112,0.8,10.4,68,0.00,,,0.00,WUHU21636XXSP,2013-09-16 21:33:00,
2013-09-16 17:38:00,86.4,74.5,29.98,East,90,0.0,11.4,68,0.00,,,0.00,WUHU21636XXSP,2013-09-16 21:38:00,
2013-09-16 17:43:00,86.2,74.8,29.98,ENE,67,1.3,11.4,69,0.00,,,0.00,WUHU21636XXSP,2013-09-16 21:43:00,
2013-09-16 17:48:00,86.4,74.5,29.98,ESE,112,0.0,10.1,68,0.00,,,0.00,WUHU21636XXSP,2013-09-16 21:48:00,
2013-09-16 17:53:00,86.0,74.1,29.99,NE,45,1.2,10.1,68,0.00,,,0.00,WUHU21636XXSP,2013-09-16 21:53:00,
2013-09-16 17:58:00,85.8,73.9,29.99,ENE,67,0.8,7.5,68,0.00,,,0.00,WUHU21636XXSP,2013-09-16 21:58:00,
2013-09-16 18:03:00,85.6,73.8,29.99,SSE,157,2.6,8.0,68,0.00,,,0.00,WUHU21636XXSP,2013-09-16 22:03:00,
2013-09-16 18:08:00,85.6,73.8,29.99,SSE,157,0.9,8.0,69,0.00,,,0.00,WUHU21636XXSP,2013-09-16 22:08:00,
2013-09-16 18:13:00,85.3,73.9,29.99,SE,135,1.8,9.0,69,0.00,,,0.00,WUHU21636XXSP,2013-09-16 22:13:00,
2013-09-16 18:18:00,84.9,73.6,29.99,East,90,0.0,9.0,70,0.00,,,0.00,WUHU21636XXSP,2013-09-16 22:18:00,
2013-09-16 18:23:00,84.6,74.1,29.98,East,90,1.4,8.7,71,0.00,,,0.00,WUHU21636XXSP,2013-09-16 22:23:00,
2013-09-16 18:28:00,84.4,73.9,29.98,ESE,112,0.0,7.0,71,0.00,,,0.00,WUHU21636XXSP,2013-09-16 22:28:00,
2013-09-16 18:33:00,84.4,73.9,29.98,East,90,1.5,7.0,71,0.00,,,0.00,WUHU21636XXSP,2013-09-16 22:33:00,
2013-09-16 18:38:00,83.8,73.4,29.98,ESE,112,2.6,5.2,71,0.00,,,0.00,WUHU21636XXSP,2013-09-16 22:38:00,
2013-09-16 18:43:00,83.8,73.4,29.98,East,90,4.8,5.4,71,0.00,,,0.00,WUHU21636XXSP,2013-09-16 22:43:00,
2013-09-16 18:48:00,83.5,73.0,29.98,ENE,67,0.0,5.4,71,0.00,,,0.00,WUHU21636XXSP,2013-09-16 22:48:00,
2013-09-16 18:53:00,83.3,72.9,29.99,East,90,0.0,4.4,72,0.00,,,0.00,WUHU21636XXSP,2013-09-16 22:53:00,
2013-09-16 18:58:00,83.1,72.7,29.99,East,90,0.0,4.5,72,0.00,,,0.00,WUHU21636XXSP,2013-09-16 22:58:00,
2013-09-16 19:03:00,83.1,72.7,29.99,East,90,0.0,4.5,72,0.00,,,0.00,WUHU21636XXSP,2013-09-16 23:03:00,
2013-09-16 19:08:00,82.9,72.9,29.99,NE,45,0.0,3.7,73,0.00,,,0.00,WUHU21636XXSP,2013-09-16 23:08:00,
2013-09-16 19:13:00,82.8,73.6,29.98,North,0,0.0,4.3,74,0.00,,,0.00,WUHU21636XXSP,2013-09-16 23:13:00,
2013-09-16 19:18:00,82.6,73.8,29.99,ENE,67,0.0,4.3,75,0.00,,,0.00,WUHU21636XXSP,2013-09-16 23:18:00,
2013-09-16 19:23:00,82.2,73.4,29.99,East,90,2.0,3.5,75,0.00,,,0.00,WUHU21636XXSP,2013-09-16 23:23:00,
2013-09-16 19:28:00,82.0,73.6,29.99,SE,135,0.0,3.5,77,0.00,,,0.00,WUHU21636XXSP,2013-09-16 23:28:00,
2013-09-16 19:33:00,81.7,73.2,29.99,SE,135,0.0,3.1,76,0.00,,,0.00,WUHU21636XXSP,2013-09-16 23:33:00,
2013-09-16 19:38:00,81.7,73.2,29.99,SSE,157,0.0,3.1,77,0.00,,,0.00,WUHU21636XXSP,2013-09-16 23:38:00,
2013-09-16 19:43:00,81.3,73.8,29.99,NE,45,0.0,3.8,78,0.00,,,0.00,WUHU21636XXSP,2013-09-16 23:43:00,
2013-09-16 19:48:00,81.3,73.8,29.99,ESE,112,0.0,3.8,78,0.00,,,0.00,WUHU21636XXSP,2013-09-16 23:48:00,
2013-09-16 19:53:00,81.1,73.6,30.00,ESE,112,0.0,1.4,78,0.00,,,0.00,WUHU21636XXSP,2013-09-16 23:53:00,
2013-09-16 19:58:00,81.0,73.4,29.99,ESE,112,0.0,0.0,79,0.00,,,0.00,WUHU21636XXSP,2013-09-16 23:58:00,
2013-09-16 20:03:00,80.8,73.6,29.99,ESE,112,0.0,0.0,80,0.00,,,0.00,WUHU21636XXSP,2013-09-17 00:03:00,
2013-09-16 20:08:00,80.4,73.8,29.99,ESE,112,0.0,1.6,80,0.00,,,0.00,WUHU21636XXSP,2013-09-17 00:08:00,
2013-09-16 20:13:00,80.4,73.8,29.99,NE,45,0.0,1.6,80,0.00,,,0.00,WUHU21636XXSP,2013-09-17 00:13:00,
2013-09-16 20:18:00,80.2,73.8,29.99,NE,45,0.0,0.0,81,0.00,,,0.00,WUHU21636XXSP,2013-09-17 00:18:00,
2013-09-16 20:23:00,80.2,73.8,30.00,South,180,0.0,0.0,81,0.00,,,0.00,WUHU21636XXSP,2013-09-17 00:23:00,
2013-09-16 20:28:00,80.2,73.8,30.00,ENE,67,0.0,2.6,82,0.00,,,0.00,WUHU21636XXSP,2013-09-17 00:28:00,
2013-09-16 20:33:00,80.2,73.8,30.00,ENE,67,0.0,2.6,82,0.00,,,0.00,WUHU21636XXSP,2013-09-17 00:33:00,
2013-09-16 20:38:00,80.2,73.8,30.00,SE,135,0.0,0.0,82,0.00,,,0.00,WUHU21636XXSP,2013-09-17 00:38:00,
2013-09-16 20:43:00,79.9,74.1,30.00,ESE,112,0.0,0.0,83,0.00,,,0.00,WUHU21636XXSP,2013-09-17 00:43:00,
2013-09-16 20:48:00,79.9,74.1,30.01,ENE,67,0.0,0.9,84,0.00,,,0.00,WUHU21636XXSP,2013-09-17 00:48:00,
2013-09-16 20:53:00,79.9,74.1,30.02,ENE,67,0.0,0.9,84,0.00,,,0.00,WUHU21636XXSP,2013-09-17 00:53:00,
2013-09-16 20:58:00,79.7,74.3,30.01,SE,135,0.0,3.2,85,0.00,,,0.00,WUHU21636XXSP,2013-09-17 00:58:00,
2013-09-16 21:03:00,79.9,74.8,30.02,ENE,67,0.0,3.2,85,0.00,,,0.00,WUHU21636XXSP,2013-09-17 01:03:00,
2013-09-16 21:08:00,79.9,74.8,30.02,East,90,0.0,2.5,85,0.00,,,0.00,WUHU21636XXSP,2013-09-17 01:08:00,
2013-09-16 21:13:00,79.9,74.8,30.02,ENE,67,0.0,0.0,85,0.00,,,0.00,WUHU21636XXSP,2013-09-17 01:13:00,
2013-09-16 21:18:00,79.9,74.8,30.02,ENE,67,0.0,0.0,85,0.00,,,0.00,WUHU21636XXSP,2013-09-17 01:18:00,
2013-09-16 21:23:00,79.7,75.0,30.02,ENE,67,0.0,0.0,86,0.00,,,0.00,WUHU21636XXSP,2013-09-17 01:23:00,
2013-09-16 21:28:00,79.5,74.8,30.02,SSE,157,0.0,1.4,86,0.00,,,0.00,WUHU21636XXSP,2013-09-17 01:28:00,
2013-09-16 21:33:00,79.3,74.7,30.02,ESE,112,0.0,1.4,87,0.00,,,0.00,WUHU21636XXSP,2013-09-17 01:33:00,
2013-09-16 21:38:00,79.3,74.7,30.03,East,90,0.0,0.0,87,0.00,,,0.00,WUHU21636XXSP,2013-09-17 01:38:00,
2013-09-16 21:43:00,79.2,74.8,30.03,ENE,67,1.9,2.2,87,0.00,,,0.00,WUHU21636XXSP,2013-09-17 01:43:00,
2013-09-16 21:48:00,79.3,75.0,30.03,ESE,112,0.0,2.2,87,0.00,,,0.00,WUHU21636XXSP,2013-09-17 01:48:00,
2013-09-16 21:53:00,79.3,75.0,30.03,ESE,112,0.0,1.6,87,0.00,,,0.00,WUHU21636XXSP,2013-09-17 01:53:00,
2013-09-16 21:58:00,79.3,75.0,30.02,ENE,67,0.0,0.0,88,0.00,,,0.00,WUHU21636XXSP,2013-09-17 01:58:00,
2013-09-16 22:03:00,79.2,75.2,30.02,ESE,112,0.0,0.0,88,0.00,,,0.00,WUHU21636XXSP,2013-09-17 02:03:00,
2013-09-16 22:08:00,79.0,75.0,30.02,ESE,112,0.0,0.0,88,0.00,,,0.00,WUHU21636XXSP,2013-09-17 02:08:00,
2013-09-16 22:13:00,78.8,75.0,30.02,ESE,112,0.0,0.0,88,0.00,,,0.00,WUHU21636XXSP,2013-09-17 02:13:00,
2013-09-16 22:18:00,78.6,74.8,30.02,ESE,112,0.0,0.0,88,0.00,,,0.00,WUHU21636XXSP,2013-09-17 02:18:00,
2013-09-16 22:23:00,78.4,75.0,30.02,ESE,112,0.0,0.0,89,0.00,,,0.00,WUHU21636XXSP,2013-09-17 02:23:00,
2013-09-16 22:28:00,78.3,74.8,30.02,ESE,112,0.0,0.0,89,0.00,,,0.00,WUHU21636XXSP,2013-09-17 02:28:00,
2013-09-16 22:33:00,78.1,74.7,30.01,ESE,112,0.0,0.0,89,0.00,,,0.00,WUHU21636XXSP,2013-09-17 02:33:00,
2013-09-16 22:38:00,77.7,74.7,30.01,ESE,112,0.0,0.0,90,0.00,,,0.00,WUHU21636XXSP,2013-09-17 02:38:00,
2013-09-16 22:43:00,77.7,74.7,30.01,ESE,112,0.0,0.0,90,0.00,,,0.00,WUHU21636XXSP,2013-09-17 02:43:00,
2013-09-16 22:48:00,77.5,74.7,30.01,ESE,112,0.0,0.0,90,0.00,,,0.00,WUHU21636XXSP,2013-09-17 02:48:00,
2013-09-16 22:53:00,77.4,74.5,30.01,ESE,112,0.0,0.0,91,0.00,,,0.00,WUHU21636XXSP,2013-09-17 02:53:00,
2013-09-16 22:58:00,77.2,74.3,30.01,ESE,112,0.0,0.0,91,0.00,,,0.00,WUHU21636XXSP,2013-09-17 02:58:00,
2013-09-16 23:03:00,77.2,74.3,30.01,ESE,112,0.0,0.0,91,0.00,,,0.00,WUHU21636XXSP,2013-09-17 03:03:00,
2013-09-16 23:08:00,77.2,74.3,30.01,ESE,112,0.0,0.0,92,0.00,,,0.00,WUHU21636XXSP,2013-09-17 03:08:00,
2013-09-16 23:13:00,76.8,74.3,30.01,ESE,112,0.0,0.0,92,0.00,,,0.00,WUHU21636XXSP,2013-09-17 03:13:00,
2013-09-16 23:18:00,76.8,74.3,30.01,ESE,112,0.0,0.0,92,0.00,,,0.00,WUHU21636XXSP,2013-09-17 03:18:00,
2013-09-16 23:23:00,76.8,74.3,30.01,ESE,112,0.0,0.0,92,0.00,,,0.00,WUHU21636XXSP,2013-09-17 03:23:00,
2013-09-16 23:28:00,76.6,74.1,30.02,ESE,112,0.0,0.0,92,0.00,,,0.00,WUHU21636XXSP,2013-09-17 03:28:00,
2013-09-16 23:33:00,76.5,73.9,30.01,ESE,112,0.0,0.0,92,0.00,,,0.00,WUHU21636XXSP,2013-09-17 03:33:00,
2013-09-16 23:38:00,76.3,73.8,30.02,ESE,112,0.0,0.0,93,0.00,,,0.00,WUHU21636XXSP,2013-09-17 03:38:00,
2013-09-16 23:43:00,76.1,73.9,30.01,ESE,112,0.0,0.0,93,0.00,,,0.00,WUHU21636XXSP,2013-09-17 03:43:00,
2013-09-16 23:48:00,75.9,73.8,30.01,ESE,112,0.0,0.0,93,0.00,,,0.00,WUHU21636XXSP,2013-09-17 03:48:00,
2013-09-16 23:53:00,75.9,73.8,30.01,ESE,112,0.0,0.0,93,0.00,,,0.00,WUHU21636XXSP,2013-09-17 03:53:00,
2013-09-16 23:58:00,75.9,73.8,30.01,ESE,112,0.0,0.0,93,0.00,,,0.00,WUHU21636XXSP,2013-09-17 03:58:00,